York, United Kingdom
Current Conditions -  °F | °C
As of 12:50 AM on Sunday 21 Dec 2014 (Local Time) from EGXU Reporting Station
Broken Clouds Broken Clouds  
Wind Chill: 42°   Ceiling: 19000
Heat Index: 46°   Visibility: 6mi
Dew Point: 46°   Wind: 9mph
Humidity: 100%   Direction: 240°WSW
Pressure: 30.27"   Gusts: NA
Location:  53.96°N, 1.08°W
Report Text: EGXU 210050Z AUTO 24008KT 9999 // SCT021/// BKN190/// 08/08 Q1025
Loading
Personal Weather Stations






























Interactive Weather Map New forecast layout! Learn more

10-Day Weather Forecast

Advertisements
Track Severe Weather on mobile